Vadito, NM

11:57 AM MST on January 30, 2015 (GMT -0700)
Los Alamos | Change Station
CLOSE
Current Station
Airport
Location: Los Alamos,
Elevation: 7172 ft
Nearby Weather Stations
Active Advisory: Winter Storm Warning Active Notice: Public Information Statement

Elev 7172 ft 35.88 °N, 106.27 °W | Updated 22 minutes ago

Snow
Snow
28 °F
Feels Like 20 °F
N
8
Wind Variable Wind from SSW

Today
High -- | Low -- °F
--% Chance of Precip.
Yesterday
High -- | Low -- °F
Precip. -- in
7:05 AM 5:27 PM
Waxing Gibbous, 84% visible
Pressure 30.26 in
Visibility 0.8 miles
Clouds Overcast 500 ft
Windchill 20 °F
Dew Point 28 °F
Humidity 100%
Rainfall 0.06 in
Snow Depth Not available.
UV 1 out of 12
Pollen .90 out of 12
Air Quality Not available.
Flu Activity Not available.
METAR KLAM 301835Z AUTO 20007KT 3/4SM -SN OVC005 M02/M02 A3026 RMK AO2 P0001 T10211021

More Conditions Fewer Conditions

Pressure 30.26 in
Visibility 0.8 miles
Clouds Overcast 500 ft
Windchill 20 °F
Dew Point 28 °F
Humidity 100%
Rainfall 0.06 in
Snow Depth Not available.
UV 1 out of 12
Pollen .90 out of 12
Air Quality Not available.
Flu Activity Not available.
METAR KLAM 301835Z AUTO 20007KT 3/4SM -SN OVC005 M02/M02 A3026 RMK AO2 P0001 T10211021

More Conditions Fewer Conditions

Nowcast | as of 9:56 am MST on January 30, 2015

Through 12 noon...snow will continue across central and northern New Mexico...perhaps mixed with or turning over to rain at the lowest elevations. Periods of snow will impact roads including Interstate 40 around Albuquerque...Interstate 25 between La Bajada Hill and Glorieta Pass and Highway 285 between Vaughn...Clines Corners...Santa Fe and Espanola. 1 or 2 inches of new snow accumulation will be possible above 6000 feet. For the latest Road conditions visit N M roads dot com or dial 5 1 1.

×

10-Day Weather Forecast

Almanac

Astronomy

Jan. 30, 2015 Rise Set
Actual Time
Civil Twilight
Nautical Twilight
Astronomical Twilight
Moon
Length of Visible Light
Length of Day
Tomorrow will be .
, % of the Moon is Illuminated

Today's Extremes

State Highs State Lows

Community

WunderPhotos

Upload Photos

1,791,859 photos uploaded!

WunderBlogs® & News

Nearby

Air Quality

  Air Quality AQ Index Pollutant
Not available.

Snow Depth

Station Depth Elevation

Earthquake Activity

City Distance Mag. Time & Date
Minimum magnitude displayed is 2.5.

Coastal Water Temperatures

Place Temperature

Nearby Weather Stations